createdAt,value
2023-03-19T00:04:54.184Z,0.90
2023-03-19T00:09:55.598Z,0.70
2023-03-19T00:14:56.985Z,0.93
2023-03-19T00:19:58.370Z,1.08
2023-03-19T00:24:59.805Z,0.80
2023-03-19T00:30:02.432Z,0.75
2023-03-19T00:35:06.198Z,0.70
2023-03-19T00:40:08.396Z,0.70
2023-03-19T00:45:10.697Z,0.80
2023-03-19T00:50:12.231Z,0.80
2023-03-19T00:55:14.018Z,1.00
2023-03-19T01:00:18.883Z,0.70
2023-03-19T01:05:20.264Z,0.87
2023-03-19T01:10:22.594Z,0.70
2023-03-19T01:15:24.002Z,0.90
2023-03-19T01:20:25.387Z,0.75
2023-03-19T01:25:26.935Z,1.08
2023-03-19T01:30:28.367Z,0.80
2023-03-19T01:35:30.120Z,0.73
2023-03-19T01:40:32.753Z,0.70
2023-03-19T01:45:36.339Z,0.75
2023-03-19T01:50:41.881Z,0.90
2023-03-19T01:55:43.282Z,0.80
2023-03-19T02:00:44.721Z,0.82
2023-03-19T02:05:46.431Z,0.70
2023-03-19T02:10:48.094Z,0.70
2023-03-19T02:15:50.803Z,0.73
2023-03-19T02:20:59.296Z,0.70
2023-03-19T02:26:02.488Z,0.70
2023-03-19T02:31:03.918Z,0.85
2023-03-19T02:36:06.967Z,0.80
2023-03-19T02:41:08.485Z,0.57
2023-03-19T02:46:12.037Z,0.80
2023-03-19T02:51:13.560Z,0.90
2023-03-19T02:56:15.258Z,0.85
2023-03-19T03:01:17.561Z,0.90
2023-03-19T03:06:19.023Z,1.00
2023-03-19T03:11:20.398Z,0.77
2023-03-19T03:16:22.629Z,0.80
2023-03-19T03:21:24.072Z,0.70
2023-03-19T03:26:25.512Z,0.85
2023-03-19T03:31:27.004Z,0.90
2023-03-19T03:36:28.718Z,0.73
2023-03-19T03:41:30.204Z,0.88
2023-03-19T03:46:31.605Z,0.63
2023-03-19T03:51:33.007Z,0.90
2023-03-19T03:56:34.467Z,0.70
2023-03-19T04:01:36.131Z,0.80
2023-03-19T04:06:37.500Z,0.80
2023-03-19T04:11:39.505Z,0.98
2023-03-19T04:16:41.194Z,1.15
2023-03-19T04:21:42.772Z,0.90
2023-03-19T04:26:44.232Z,0.80
2023-03-19T04:31:45.780Z,1.00
2023-03-19T04:36:47.228Z,0.80
2023-03-19T04:41:48.982Z,0.60
2023-03-19T04:46:50.465Z,0.88
2023-03-19T04:51:51.830Z,0.70
2023-03-19T04:56:53.529Z,0.80
2023-03-19T05:01:54.934Z,0.68
2023-03-19T05:06:57.255Z,0.80
2023-03-19T05:11:58.641Z,1.05
2023-03-19T05:17:00.499Z,0.68
2023-03-19T05:22:01.889Z,0.85
2023-03-19T05:27:03.374Z,1.00
2023-03-19T05:32:05.057Z,1.00
2023-03-19T05:37:06.440Z,0.80
2023-03-19T05:42:07.845Z,1.05
2023-03-19T05:47:10.785Z,0.70
2023-03-19T05:52:12.267Z,0.80
2023-03-19T05:57:14.071Z,0.98
2023-03-19T06:02:15.787Z,0.75
2023-03-19T06:07:17.184Z,1.00
2023-03-19T06:12:18.638Z,0.90
2023-03-19T06:17:21.255Z,0.80
2023-03-19T06:22:22.642Z,0.73
2023-03-19T06:27:24.038Z,0.70
2023-03-19T06:32:25.583Z,0.80
2023-03-19T06:37:26.953Z,0.80
2023-03-19T06:42:28.352Z,0.82
2023-03-19T06:47:29.765Z,0.70
2023-03-19T06:52:31.225Z,0.70
2023-03-19T06:57:32.650Z,0.77
2023-03-19T07:02:34.083Z,0.65
2023-03-19T07:07:35.683Z,0.90
2023-03-19T07:12:37.267Z,0.85
2023-03-19T07:17:38.653Z,0.77
2023-03-19T07:22:40.342Z,0.70
2023-03-19T07:27:41.761Z,1.00
2023-03-19T07:32:43.791Z,0.70
2023-03-19T07:37:45.274Z,0.85
2023-03-19T07:42:46.683Z,0.70
2023-03-19T07:47:50.447Z,0.80
2023-03-19T07:52:51.939Z,0.73
2023-03-19T07:57:53.330Z,0.82
2023-03-19T08:02:54.728Z,0.90
2023-03-19T08:07:56.131Z,0.70
2023-03-19T08:12:57.603Z,0.82
2023-03-19T08:18:03.642Z,0.60
2023-03-19T08:23:05.086Z,0.80
2023-03-19T08:28:07.075Z,0.80
2023-03-19T08:33:08.704Z,0.70
2023-03-19T08:38:10.994Z,0.80
2023-03-19T08:43:12.399Z,0.70
2023-03-19T08:48:13.791Z,0.60
2023-03-19T08:53:15.361Z,0.57
2023-03-19T08:58:16.754Z,0.70
2023-03-19T09:03:18.175Z,0.70
2023-03-19T09:08:19.559Z,0.60
2023-03-19T09:13:21.008Z,0.60
2023-03-19T09:18:25.255Z,0.85
2023-03-19T09:23:26.707Z,0.63
2023-03-19T09:28:28.129Z,0.80
2023-03-19T09:33:29.508Z,0.80
2023-03-19T09:38:31.085Z,0.80
2023-03-19T09:43:59.284Z,0.70
2023-03-19T09:49:22.356Z,0.70
2023-03-19T09:54:36.497Z,0.60
2023-03-19T09:59:37.894Z,0.60
2023-03-19T10:04:42.539Z,0.80
2023-03-19T10:09:46.650Z,0.60
2023-03-19T10:15:04.251Z,0.63
2023-03-19T10:20:45.193Z,0.60
2023-03-19T10:25:46.694Z,0.60
2023-03-19T10:30:57.740Z,0.70
2023-03-19T10:36:05.577Z,0.70
2023-03-19T10:41:28.206Z,0.70
2023-03-19T10:46:39.371Z,0.50
2023-03-19T10:51:43.683Z,0.50
2023-03-19T10:56:46.118Z,0.55
2023-03-19T11:01:47.506Z,0.52
2023-03-19T11:06:50.054Z,0.60
2023-03-19T11:11:53.962Z,0.60
2023-03-19T11:16:57.346Z,0.60
2023-03-19T11:22:05.341Z,0.50
2023-03-19T11:27:07.448Z,0.68
2023-03-19T11:32:22.058Z,0.50
2023-03-19T11:37:54.817Z,0.70
2023-03-19T11:43:25.369Z,0.70
2023-03-19T11:48:32.435Z,0.80
2023-03-19T11:54:11.639Z,0.70
2023-03-19T11:59:28.426Z,0.40
2023-03-19T12:04:54.015Z,0.35
2023-03-19T12:15:23.438Z,0.60
2023-03-19T12:21:15.513Z,0.50
2023-03-19T12:26:40.323Z,0.52
2023-03-19T12:31:51.304Z,0.50
2023-03-19T12:37:06.947Z,0.60
2023-03-19T12:47:13.026Z,0.60
2023-03-19T12:52:26.607Z,0.60
2023-03-19T12:57:37.934Z,0.55
2023-03-19T13:02:50.264Z,0.50
2023-03-19T13:08:11.839Z,0.75
2023-03-19T13:13:28.596Z,0.65
2023-03-19T13:18:44.199Z,0.60
2023-03-19T13:23:45.637Z,0.65
2023-03-19T13:29:01.448Z,0.70
2023-03-19T13:34:05.047Z,0.60
2023-03-19T13:39:13.270Z,0.80
2023-03-19T13:44:40.648Z,0.60
2023-03-19T13:50:05.505Z,0.60
2023-03-19T13:55:25.484Z,0.68
2023-03-19T14:00:47.024Z,0.60
2023-03-19T14:05:48.803Z,0.75
2023-03-19T14:10:57.872Z,0.60
2023-03-19T14:16:15.960Z,0.50
2023-03-19T14:21:38.785Z,0.70
2023-03-19T14:26:41.973Z,0.77
2023-03-19T14:31:53.815Z,0.68
2023-03-19T14:37:17.207Z,0.70
2023-03-19T14:42:50.257Z,0.45
2023-03-19T14:48:22.953Z,0.70
2023-03-19T14:53:27.231Z,0.63
2023-03-19T14:58:28.610Z,0.45
2023-03-19T15:03:39.346Z,0.68
2023-03-19T15:08:40.790Z,0.70
2023-03-19T15:13:58.475Z,0.60
2023-03-19T15:18:59.869Z,0.60
2023-03-19T15:24:01.251Z,0.40
2023-03-19T15:29:04.231Z,0.70
2023-03-19T15:34:22.573Z,0.43
2023-03-19T15:39:24.868Z,0.60
2023-03-19T15:44:31.503Z,0.55
2023-03-19T15:49:36.472Z,0.30
2023-03-19T15:54:37.880Z,0.20
2023-03-19T15:59:39.280Z,0.20
2023-03-19T16:05:06.714Z,0.25
2023-03-19T16:10:40.141Z,0.20
2023-03-19T16:15:45.718Z,0.17
2023-03-19T16:21:09.208Z,0.20
2023-03-19T16:26:19.277Z,0.20
2023-03-19T16:31:22.808Z,0.22
2023-03-19T16:36:26.785Z,0.10
2023-03-19T16:41:34.063Z,0.10
2023-03-19T16:46:35.475Z,0.10
2023-03-19T16:51:36.896Z,0.15
2023-03-19T16:56:38.305Z,0.20
2023-03-19T17:01:39.727Z,0.20
2023-03-19T17:06:41.115Z,0.20
2023-03-19T17:11:42.830Z,0.20
2023-03-19T17:16:48.336Z,0.10
2023-03-19T17:21:52.295Z,0.20
2023-03-19T17:26:54.008Z,0.20
2023-03-19T17:31:55.832Z,0.20
2023-03-19T17:36:59.339Z,0.20
2023-03-19T17:42:00.794Z,0.30
2023-03-19T17:47:02.210Z,0.22
2023-03-19T17:52:03.684Z,0.20
2023-03-19T17:57:05.229Z,0.10
2023-03-19T18:02:27.420Z,0.10
2023-03-19T18:07:28.801Z,0.22
2023-03-19T18:12:30.246Z,0.20
2023-03-19T18:17:31.662Z,0.10
2023-03-19T18:22:33.054Z,0.20
2023-03-19T18:27:34.552Z,0.20
2023-03-19T18:32:36.048Z,0.20
2023-03-19T18:37:37.462Z,0.30
2023-03-19T18:42:38.837Z,0.20
2023-03-19T18:47:40.679Z,0.20
2023-03-19T18:52:42.563Z,0.25
2023-03-19T18:57:53.463Z,0.10
2023-03-19T19:02:55.459Z,0.40
2023-03-19T19:07:57.646Z,0.30
2023-03-19T19:12:59.045Z,0.25
2023-03-19T19:18:00.678Z,0.10
2023-03-19T19:23:02.561Z,0.20
2023-03-19T19:28:14.380Z,0.20
2023-03-19T19:33:19.616Z,0.10
2023-03-19T19:38:21.011Z,0.20
2023-03-19T19:43:24.141Z,0.20
2023-03-19T19:48:27.257Z,0.28
2023-03-19T19:53:29.580Z,0.20
2023-03-19T19:58:31.885Z,0.10
2023-03-19T20:03:33.489Z,0.25
2023-03-19T20:08:35.141Z,0.22
2023-03-19T20:13:37.643Z,0.10
2023-03-19T20:18:43.284Z,0.20
2023-03-19T20:23:44.870Z,0.30
2023-03-19T20:28:46.356Z,0.20
2023-03-19T20:33:47.727Z,0.25
2023-03-19T20:38:49.176Z,0.20
2023-03-19T20:43:50.758Z,0.28
2023-03-19T20:48:52.176Z,0.20
2023-03-19T20:53:53.607Z,0.20
2023-03-19T20:58:55.142Z,0.30
2023-03-19T21:03:57.044Z,0.32
2023-03-19T21:09:00.176Z,0.30
2023-03-19T21:14:01.877Z,0.30
2023-03-19T21:19:03.322Z,0.20
2023-03-19T21:24:15.410Z,0.20
2023-03-19T21:29:22.891Z,0.50
2023-03-19T21:34:24.298Z,0.15
2023-03-19T21:39:25.681Z,0.30
2023-03-19T21:44:29.507Z,0.30
2023-03-19T21:49:31.050Z,0.30
2023-03-19T21:54:32.439Z,0.20
2023-03-19T21:59:33.871Z,0.40
2023-03-19T22:04:35.314Z,0.20
2023-03-19T22:09:37.216Z,0.28
2023-03-19T22:14:40.059Z,0.30
2023-03-19T22:19:41.923Z,0.20
2023-03-19T22:24:43.356Z,0.20
2023-03-19T22:29:45.060Z,0.28
2023-03-19T22:34:46.431Z,0.40
2023-03-19T22:39:47.806Z,0.20
2023-03-19T22:44:49.192Z,0.30
2023-03-19T22:49:50.996Z,0.30
2023-03-19T22:54:53.586Z,0.30
2023-03-19T22:59:54.981Z,0.30
2023-03-19T23:04:56.349Z,0.30
2023-03-19T23:09:57.726Z,0.35
2023-03-19T23:14:59.095Z,0.35
2023-03-19T23:20:01.013Z,0.30
2023-03-19T23:25:02.457Z,0.47
2023-03-19T23:30:04.613Z,0.40
2023-03-19T23:35:15.519Z,0.40
2023-03-19T23:40:17.817Z,0.30
2023-03-19T23:45:31.266Z,0.32
2023-03-19T23:50:32.856Z,0.50
2023-03-19T23:55:34.528Z,0.40
